createdAt,value
2023-05-15T00:00:25.010Z,6.60
2023-05-15T00:01:25.010Z,8.00
2023-05-15T00:02:25.073Z,7.50
2023-05-15T00:03:25.023Z,8.00
2023-05-15T00:04:25.021Z,7.10
2023-05-15T00:05:25.172Z,7.70
2023-05-15T00:06:24.942Z,6.70
2023-05-15T00:07:24.922Z,7.70
2023-05-15T00:08:24.909Z,7.00
2023-05-15T00:09:24.886Z,8.50
2023-05-15T00:10:24.894Z,7.10
2023-05-15T00:11:24.875Z,8.00
2023-05-15T00:12:24.851Z,7.20
2023-05-15T00:13:24.835Z,8.80
2023-05-15T00:14:24.867Z,6.70
2023-05-15T00:15:25.239Z,8.00
2023-05-15T00:16:24.848Z,6.90
2023-05-15T00:17:24.786Z,8.00
2023-05-15T00:18:24.784Z,7.50
2023-05-15T00:19:24.769Z,7.40
2023-05-15T00:20:24.766Z,6.70
2023-05-15T00:21:24.730Z,7.90
2023-05-15T00:22:24.730Z,8.20
2023-05-15T00:23:24.706Z,6.70
2023-05-15T00:24:24.700Z,6.50
2023-05-15T00:25:24.924Z,7.30
2023-05-15T00:26:24.690Z,8.00
2023-05-15T00:27:24.657Z,8.00
2023-05-15T00:28:24.644Z,6.90
2023-05-15T00:29:24.626Z,7.80
2023-05-15T00:30:24.635Z,8.00
2023-05-15T00:31:24.686Z,7.60
2023-05-15T00:32:24.677Z,7.10
2023-05-15T00:33:24.584Z,7.60
2023-05-15T00:34:24.586Z,6.90
2023-05-15T00:35:24.809Z,7.20
2023-05-15T00:36:24.542Z,7.10
2023-05-15T00:37:24.528Z,7.00
2023-05-15T00:38:24.519Z,7.90
2023-05-15T00:39:24.520Z,7.80
2023-05-15T00:40:24.500Z,8.70
2023-05-15T00:41:24.476Z,8.20
2023-05-15T00:42:24.473Z,9.90
2023-05-15T00:43:24.451Z,9.00
2023-05-15T00:44:24.482Z,8.90
2023-05-15T00:45:24.647Z,9.00
2023-05-15T00:46:24.456Z,9.90
2023-05-15T00:47:24.453Z,10.00
2023-05-15T00:48:24.410Z,11.10
2023-05-15T00:49:24.387Z,10.00
2023-05-15T00:50:24.363Z,8.80
2023-05-15T00:51:24.346Z,9.70
2023-05-15T00:52:24.340Z,8.40
2023-05-15T00:53:24.340Z,9.00
2023-05-15T00:54:24.310Z,8.70
2023-05-15T00:55:24.621Z,8.70
2023-05-15T00:56:24.281Z,8.80
2023-05-15T00:57:24.295Z,9.20
2023-05-15T00:58:24.268Z,8.40
2023-05-15T00:59:24.241Z,9.40
2023-05-15T01:00:24.238Z,8.70
2023-05-15T01:01:24.293Z,7.50
2023-05-15T01:02:24.353Z,7.90
2023-05-15T01:03:24.368Z,8.60
2023-05-15T01:04:24.175Z,9.00
2023-05-15T01:05:24.302Z,8.20
2023-05-15T01:06:24.151Z,8.30
2023-05-15T01:07:24.156Z,9.80
2023-05-15T01:08:24.123Z,9.20
2023-05-15T01:09:24.119Z,8.90
2023-05-15T01:10:24.107Z,8.50
2023-05-15T01:11:24.098Z,9.90
2023-05-15T01:12:24.092Z,12.90
2023-05-15T01:13:24.054Z,9.00
2023-05-15T01:14:24.040Z,9.20
2023-05-15T01:15:24.207Z,8.70
2023-05-15T01:16:24.028Z,8.50
2023-05-15T01:17:24.002Z,9.70
2023-05-15T01:18:24.098Z,10.20
2023-05-15T01:19:24.159Z,10.10
2023-05-15T01:20:23.963Z,10.10
2023-05-15T01:21:23.960Z,9.10
2023-05-15T01:22:23.940Z,9.40
2023-05-15T01:23:23.932Z,10.10
2023-05-15T01:24:23.916Z,8.10
2023-05-15T01:25:24.225Z,9.10
2023-05-15T01:26:23.896Z,8.60
2023-05-15T01:27:23.880Z,8.30
2023-05-15T01:28:23.859Z,10.40
2023-05-15T01:29:23.840Z,8.10
2023-05-15T01:30:23.840Z,9.60
2023-05-15T01:31:23.827Z,8.40
2023-05-15T01:32:24.027Z,10.20
2023-05-15T01:33:23.793Z,9.00
2023-05-15T01:34:23.782Z,9.70
2023-05-15T01:35:24.234Z,8.80
2023-05-15T01:36:23.754Z,9.40
2023-05-15T01:37:23.733Z,8.90
2023-05-15T01:38:23.729Z,7.90
2023-05-15T01:39:23.712Z,8.50
2023-05-15T01:40:23.721Z,7.60
2023-05-15T01:41:23.689Z,8.60
2023-05-15T01:42:23.668Z,8.90
2023-05-15T01:43:23.650Z,8.60
2023-05-15T01:44:23.655Z,9.20
2023-05-15T01:45:23.752Z,8.50
2023-05-15T01:46:23.641Z,9.60
2023-05-15T01:47:23.620Z,8.00
2023-05-15T01:48:23.598Z,8.20
2023-05-15T01:49:23.588Z,8.10
2023-05-15T01:50:23.560Z,7.90
2023-05-15T01:51:23.582Z,7.70
2023-05-15T01:52:23.538Z,8.90
2023-05-15T01:53:23.556Z,13.70
2023-05-15T01:54:23.562Z,11.90
2023-05-15T01:55:23.748Z,12.70
2023-05-15T01:56:23.479Z,12.40
2023-05-15T01:57:23.476Z,13.80
2023-05-15T01:58:23.484Z,14.30
2023-05-15T01:59:23.453Z,15.00
2023-05-15T02:00:23.448Z,39.60
2023-05-15T02:01:23.439Z,21.80
2023-05-15T02:02:23.460Z,57.90
2023-05-15T02:03:23.471Z,55.20
2023-05-15T02:04:23.395Z,106.80
2023-05-15T02:05:23.493Z,80.20
2023-05-15T02:06:23.346Z,40.80
2023-05-15T02:07:23.365Z,111.60
2023-05-15T02:08:23.343Z,27.50
2023-05-15T02:09:23.305Z,46.40
2023-05-15T02:10:23.304Z,59.00
2023-05-15T02:11:23.279Z,97.40
2023-05-15T02:12:23.286Z,62.70
2023-05-15T02:13:23.278Z,64.70
2023-05-15T02:14:23.257Z,87.20
2023-05-15T02:15:23.758Z,110.10
2023-05-15T02:16:23.303Z,109.10
2023-05-15T02:17:23.308Z,65.40
2023-05-15T02:18:23.187Z,78.90
2023-05-15T02:19:23.183Z,90.40
2023-05-15T02:20:23.166Z,79.90
2023-05-15T02:21:23.147Z,121.60
2023-05-15T02:22:23.150Z,87.10
2023-05-15T02:23:23.141Z,111.10
2023-05-15T02:24:23.112Z,57.50
2023-05-15T02:25:23.322Z,90.50
2023-05-15T02:26:23.094Z,67.70
2023-05-15T02:27:23.080Z,134.00
2023-05-15T02:28:23.058Z,122.80
2023-05-15T02:29:23.042Z,58.60
2023-05-15T02:30:23.032Z,79.70
2023-05-15T02:31:24.480Z,98.80
2023-05-15T02:32:23.029Z,64.00
2023-05-15T02:33:22.986Z,91.20
2023-05-15T02:34:22.983Z,53.80
2023-05-15T02:35:23.136Z,47.70
2023-05-15T02:36:22.968Z,44.00
2023-05-15T02:37:22.935Z,94.70
2023-05-15T02:38:22.924Z,58.80
2023-05-15T02:39:22.937Z,85.30
2023-05-15T02:40:22.900Z,63.50
2023-05-15T02:41:22.916Z,52.70
2023-05-15T02:42:22.895Z,60.80
2023-05-15T02:43:22.861Z,62.30
2023-05-15T02:44:22.846Z,54.00
2023-05-15T02:45:23.154Z,61.30
2023-05-15T02:46:22.997Z,38.30
2023-05-15T02:47:22.804Z,44.50
2023-05-15T02:48:22.794Z,39.50
2023-05-15T02:49:22.775Z,34.90
2023-05-15T02:50:22.788Z,25.60
2023-05-15T02:51:22.747Z,17.80
2023-05-15T02:52:22.733Z,46.30
2023-05-15T02:53:22.720Z,28.70
2023-05-15T02:54:22.717Z,34.00
2023-05-15T02:55:22.768Z,58.10
2023-05-15T02:56:22.682Z,21.40
2023-05-15T02:57:22.680Z,25.70
2023-05-15T02:58:22.671Z,18.20
2023-05-15T02:59:22.642Z,15.20
2023-05-15T03:00:22.653Z,14.30
2023-05-15T03:01:22.639Z,17.60
2023-05-15T03:02:22.637Z,16.10
2023-05-15T03:03:22.591Z,16.90
2023-05-15T03:04:22.734Z,13.70
2023-05-15T03:05:22.854Z,13.90
2023-05-15T03:06:22.553Z,13.60
2023-05-15T03:07:22.549Z,13.00
2023-05-15T03:08:22.520Z,13.90
2023-05-15T03:09:22.525Z,11.60
2023-05-15T03:10:22.498Z,13.00
2023-05-15T03:11:22.504Z,13.80
2023-05-15T03:12:22.476Z,14.30
2023-05-15T03:13:22.481Z,17.20
2023-05-15T03:14:22.458Z,13.20
2023-05-15T03:15:22.565Z,14.10
2023-05-15T03:16:22.440Z,17.30
2023-05-15T03:17:22.404Z,17.80
2023-05-15T03:18:22.404Z,14.20
2023-05-15T03:19:22.380Z,14.40
2023-05-15T03:20:22.366Z,14.60
2023-05-15T03:21:22.352Z,13.80
2023-05-15T03:22:22.365Z,13.10
2023-05-15T03:23:22.343Z,13.40
2023-05-15T03:24:22.317Z,17.40
2023-05-15T03:25:22.314Z,12.40
2023-05-15T03:26:22.314Z,14.50
2023-05-15T03:27:22.318Z,12.20
2023-05-15T03:28:22.278Z,12.10
2023-05-15T03:29:22.246Z,13.30
2023-05-15T03:30:22.237Z,13.80
2023-05-15T03:31:22.279Z,14.60
2023-05-15T03:32:22.305Z,12.00
2023-05-15T03:33:22.210Z,11.40
2023-05-15T03:34:22.182Z,14.00
2023-05-15T03:35:22.222Z,11.70
2023-05-15T03:36:22.161Z,11.80
2023-05-15T03:37:22.196Z,13.40
2023-05-15T03:38:22.138Z,13.10
2023-05-15T03:39:22.118Z,12.60
2023-05-15T03:40:22.123Z,13.30
2023-05-15T03:41:22.119Z,13.70
2023-05-15T03:42:22.092Z,13.10
2023-05-15T03:43:22.082Z,12.10
2023-05-15T03:44:22.052Z,11.60
2023-05-15T03:45:22.137Z,12.10
2023-05-15T03:46:22.101Z,12.30
2023-05-15T03:47:22.035Z,15.90
2023-05-15T03:48:22.021Z,22.30
2023-05-15T03:49:22.005Z,18.40
2023-05-15T03:50:21.976Z,16.00
2023-05-15T03:51:21.978Z,14.80
2023-05-15T03:52:21.944Z,14.90
2023-05-15T03:53:21.932Z,13.40
2023-05-15T03:54:21.921Z,13.90
2023-05-15T03:55:21.917Z,15.80
2023-05-15T03:56:21.908Z,14.10
2023-05-15T03:57:21.886Z,13.70
2023-05-15T03:58:21.867Z,12.90
2023-05-15T03:59:21.876Z,11.80
2023-05-15T04:00:21.870Z,12.20
2023-05-15T04:01:21.849Z,12.20
2023-05-15T04:02:21.919Z,11.00
2023-05-15T04:03:21.966Z,10.50
2023-05-15T04:04:21.791Z,11.30
2023-05-15T04:05:22.021Z,13.70
2023-05-15T04:06:21.762Z,12.00
2023-05-15T04:07:21.752Z,13.30
2023-05-15T04:08:21.740Z,11.40
2023-05-15T04:09:21.724Z,11.20
2023-05-15T04:10:21.738Z,11.00
2023-05-15T04:11:21.706Z,10.60
2023-05-15T04:12:21.683Z,10.10
2023-05-15T04:13:21.673Z,10.00
2023-05-15T04:14:21.679Z,9.80
2023-05-15T04:15:21.845Z,11.50
2023-05-15T04:16:21.718Z,11.30
2023-05-15T04:17:21.649Z,9.90
2023-05-15T04:18:21.603Z,10.70
2023-05-15T04:19:21.649Z,10.50
2023-05-15T04:20:21.584Z,10.40
2023-05-15T04:21:21.567Z,9.40
2023-05-15T04:22:21.555Z,8.90
2023-05-15T04:23:21.544Z,8.70
2023-05-15T04:24:21.547Z,8.10
2023-05-15T04:25:21.538Z,8.60
2023-05-15T04:26:21.514Z,7.40
2023-05-15T04:27:21.495Z,8.00
2023-05-15T04:28:21.485Z,7.90
2023-05-15T04:29:21.480Z,8.40
2023-05-15T04:30:21.449Z,7.50
2023-05-15T04:31:21.506Z,7.50
2023-05-15T04:32:21.434Z,7.60
2023-05-15T04:33:21.456Z,7.20
2023-05-15T04:34:21.398Z,8.00
2023-05-15T04:35:21.384Z,7.50
2023-05-15T04:36:21.371Z,8.50
2023-05-15T04:37:21.365Z,7.50
2023-05-15T04:38:21.355Z,8.30
2023-05-15T04:39:21.327Z,8.40
2023-05-15T04:40:21.319Z,7.40
2023-05-15T04:41:21.305Z,8.10
2023-05-15T04:42:21.306Z,10.40
2023-05-15T04:43:21.299Z,10.30
2023-05-15T04:44:21.292Z,12.00
2023-05-15T04:45:21.250Z,12.50
2023-05-15T04:46:21.279Z,12.70
2023-05-15T04:47:21.320Z,27.10
2023-05-15T04:48:21.214Z,38.00
2023-05-15T04:49:21.196Z,42.90
2023-05-15T04:50:21.182Z,58.50
2023-05-15T04:51:21.177Z,95.30
2023-05-15T04:52:21.166Z,50.00
2023-05-15T04:53:21.144Z,50.60
2023-05-15T04:54:21.131Z,42.80
2023-05-15T04:55:21.124Z,86.90
2023-05-15T04:56:21.115Z,85.90
2023-05-15T04:57:21.104Z,128.30
2023-05-15T04:58:21.078Z,170.40
2023-05-15T04:59:21.063Z,119.20
2023-05-15T05:00:21.049Z,90.90
2023-05-15T05:01:21.089Z,48.20
2023-05-15T05:02:21.087Z,49.40
2023-05-15T05:03:21.057Z,84.90
2023-05-15T05:04:21.007Z,57.80
2023-05-15T05:05:20.996Z,20.70
2023-05-15T05:06:20.995Z,20.90
2023-05-15T05:07:20.962Z,26.50
2023-05-15T05:08:20.944Z,19.50
2023-05-15T05:09:20.934Z,46.60
2023-05-15T05:10:20.923Z,46.80
2023-05-15T05:11:20.926Z,40.30
2023-05-15T05:12:20.890Z,44.70
2023-05-15T05:13:20.882Z,39.60
2023-05-15T05:14:20.868Z,32.50
2023-05-15T05:15:20.872Z,30.90
2023-05-15T05:16:20.891Z,45.10
2023-05-15T05:17:20.829Z,71.10
2023-05-15T05:18:20.813Z,38.90
2023-05-15T05:19:20.829Z,37.80
2023-05-15T05:20:20.803Z,48.90
2023-05-15T05:21:20.775Z,92.10
2023-05-15T05:22:20.767Z,49.20
2023-05-15T05:23:20.757Z,96.80
2023-05-15T05:24:20.770Z,85.20
2023-05-15T05:25:20.753Z,43.70
2023-05-15T05:26:20.709Z,43.90
2023-05-15T05:27:20.708Z,25.70
2023-05-15T05:28:20.680Z,32.80
2023-05-15T05:29:20.700Z,31.50
2023-05-15T05:30:20.655Z,34.00
2023-05-15T05:31:20.659Z,70.40
2023-05-15T05:32:20.686Z,25.70
2023-05-15T05:33:20.623Z,30.00
2023-05-15T05:34:20.796Z,39.80
2023-05-15T05:35:20.997Z,21.10
2023-05-15T05:36:20.583Z,55.60
2023-05-15T05:37:20.586Z,71.60
2023-05-15T05:38:20.554Z,63.00
2023-05-15T05:39:20.558Z,110.00
2023-05-15T05:40:20.544Z,69.40
2023-05-15T05:41:20.517Z,31.70
2023-05-15T05:42:20.515Z,29.10
2023-05-15T05:43:20.533Z,20.60
2023-05-15T05:44:20.513Z,55.30
2023-05-15T05:45:20.467Z,30.90
2023-05-15T05:46:20.448Z,45.90
2023-05-15T05:47:20.557Z,32.70
2023-05-15T05:48:20.436Z,92.90
2023-05-15T05:49:20.422Z,26.40
2023-05-15T05:50:20.399Z,41.00
2023-05-15T05:51:20.475Z,18.40
2023-05-15T05:52:20.372Z,55.80
2023-05-15T05:53:20.377Z,15.80
2023-05-15T05:54:20.342Z,34.20
2023-05-15T05:55:20.334Z,23.50
2023-05-15T05:56:20.318Z,10.80
2023-05-15T05:57:20.365Z,19.50
2023-05-15T05:58:25.600Z,18.30
2023-05-15T05:59:20.283Z,14.60
2023-05-15T06:00:20.297Z,13.50
2023-05-15T06:01:20.255Z,16.50
2023-05-15T06:02:20.279Z,28.90
2023-05-15T06:03:20.354Z,11.30
2023-05-15T06:04:20.277Z,9.80
2023-05-15T06:05:20.202Z,9.50
2023-05-15T06:06:20.210Z,24.80
2023-05-15T06:07:20.257Z,13.90
2023-05-15T06:08:20.162Z,15.40
2023-05-15T06:09:20.146Z,17.40
2023-05-15T06:10:20.140Z,18.10
2023-05-15T06:11:20.132Z,23.50
2023-05-15T06:12:21.619Z,35.90
2023-05-15T06:13:20.119Z,16.20
2023-05-15T06:14:21.268Z,27.90
2023-05-15T06:15:20.060Z,11.20
2023-05-15T06:16:20.208Z,10.00
2023-05-15T06:17:20.033Z,14.10
2023-05-15T06:18:20.020Z,21.80
2023-05-15T06:19:20.086Z,13.30
2023-05-15T06:20:19.998Z,16.50
2023-05-15T06:21:20.010Z,9.40
2023-05-15T06:22:19.967Z,11.10
2023-05-15T06:23:20.310Z,10.00
2023-05-15T06:24:19.959Z,9.30
2023-05-15T06:25:19.941Z,8.70
2023-05-15T06:26:19.935Z,14.20
2023-05-15T06:27:19.902Z,10.20
2023-05-15T06:28:19.884Z,10.10
2023-05-15T06:29:19.873Z,14.00
2023-05-15T06:30:19.869Z,11.40
2023-05-15T06:31:19.951Z,9.30
2023-05-15T06:32:19.840Z,11.70
2023-05-15T06:33:19.823Z,8.80
2023-05-15T06:34:19.807Z,11.00
2023-05-15T06:35:19.893Z,9.80
2023-05-15T06:36:19.780Z,8.40
2023-05-15T06:37:19.767Z,9.00
2023-05-15T06:38:19.759Z,8.60
2023-05-15T06:39:19.877Z,12.80
2023-05-15T06:40:19.743Z,18.60
2023-05-15T06:41:19.720Z,14.20
2023-05-15T06:42:19.702Z,10.30
2023-05-15T06:43:19.694Z,11.20
2023-05-15T06:44:19.695Z,11.00
2023-05-15T06:45:19.719Z,9.20
2023-05-15T06:46:19.712Z,11.00
2023-05-15T06:47:19.690Z,9.40
2023-05-15T06:48:19.711Z,9.50
2023-05-15T06:49:19.637Z,7.50
2023-05-15T06:50:19.597Z,10.10
2023-05-15T06:51:19.592Z,8.40
2023-05-15T06:52:19.567Z,7.70
2023-05-15T06:53:19.578Z,8.00
2023-05-15T06:54:19.558Z,7.80
2023-05-15T06:55:19.830Z,7.90
2023-05-15T06:56:19.519Z,7.30
2023-05-15T06:57:19.504Z,7.60
2023-05-15T06:58:19.494Z,7.40
2023-05-15T06:59:19.501Z,7.90
2023-05-15T07:00:19.475Z,7.50
2023-05-15T07:01:19.462Z,7.60
2023-05-15T07:02:19.451Z,6.50
2023-05-15T07:03:19.443Z,6.80
2023-05-15T07:04:19.461Z,7.00
2023-05-15T07:05:19.423Z,7.30
2023-05-15T07:06:19.384Z,7.20
2023-05-15T07:07:19.418Z,6.90
2023-05-15T07:08:19.377Z,6.80
2023-05-15T07:09:19.387Z,6.60
2023-05-15T07:10:19.327Z,6.30
2023-05-15T07:11:19.458Z,6.40
2023-05-15T07:12:19.458Z,6.10
2023-05-15T07:13:19.460Z,7.40
2023-05-15T07:14:19.276Z,6.20
2023-05-15T07:15:19.261Z,6.00
2023-05-15T07:16:19.247Z,6.90
2023-05-15T07:17:19.306Z,5.90
2023-05-15T07:18:19.282Z,6.30
2023-05-15T07:19:19.214Z,6.30
2023-05-15T07:20:19.199Z,6.00
2023-05-15T07:21:19.185Z,5.90
2023-05-15T07:22:19.189Z,5.80
2023-05-15T07:23:19.156Z,5.70
2023-05-15T07:24:19.146Z,5.10
2023-05-15T07:25:19.135Z,5.40
2023-05-15T07:26:28.556Z,5.20
2023-05-15T07:27:19.333Z,5.20
2023-05-15T07:28:19.092Z,4.50
2023-05-15T07:29:19.074Z,4.80
2023-05-15T07:30:19.064Z,4.00
2023-05-15T07:31:19.111Z,3.90
2023-05-15T07:32:19.051Z,3.90
2023-05-15T07:33:19.023Z,5.40
2023-05-15T07:34:19.016Z,4.00
2023-05-15T07:35:19.022Z,3.80
2023-05-15T07:36:19.009Z,3.80
2023-05-15T07:37:18.968Z,3.50
2023-05-15T07:38:19.013Z,4.30
2023-05-15T07:39:18.988Z,4.00
2023-05-15T07:40:18.953Z,3.70
2023-05-15T07:41:18.942Z,4.00
2023-05-15T07:42:18.918Z,4.30
2023-05-15T07:43:18.916Z,4.20
2023-05-15T07:44:18.885Z,4.20
2023-05-15T07:45:18.936Z,3.90
2023-05-15T07:46:18.921Z,5.70
2023-05-15T07:47:18.832Z,3.80
2023-05-15T07:48:18.845Z,4.00
2023-05-15T07:49:18.829Z,4.50
2023-05-15T07:50:18.813Z,7.10
2023-05-15T07:51:18.839Z,3.70
2023-05-15T07:52:18.767Z,4.30
2023-05-15T07:53:18.754Z,4.00
2023-05-15T07:54:18.759Z,4.10
2023-05-15T07:55:18.728Z,4.40
2023-05-15T07:56:18.719Z,4.10
2023-05-15T07:57:18.721Z,4.20
2023-05-15T07:58:18.693Z,4.40
2023-05-15T07:59:19.011Z,4.30
2023-05-15T08:00:18.679Z,4.30
2023-05-15T08:01:18.651Z,4.20
2023-05-15T08:02:18.830Z,5.40
2023-05-15T08:03:18.889Z,4.10
2023-05-15T08:04:18.677Z,4.10
2023-05-15T08:05:18.600Z,3.90
2023-05-15T08:06:18.603Z,3.90
2023-05-15T08:07:18.576Z,4.10
2023-05-15T08:08:18.574Z,4.20
2023-05-15T08:09:18.558Z,4.50
2023-05-15T08:10:18.535Z,4.30
2023-05-15T08:11:18.517Z,4.20
2023-05-15T08:12:18.508Z,4.20
2023-05-15T08:13:18.522Z,3.90
2023-05-15T08:14:18.528Z,4.50
2023-05-15T08:15:18.499Z,4.70
2023-05-15T08:16:18.517Z,5.20
2023-05-15T08:17:18.443Z,4.10
2023-05-15T08:18:18.450Z,4.10
2023-05-15T08:19:18.497Z,4.00
2023-05-15T08:20:18.404Z,4.00
2023-05-15T08:21:18.386Z,4.00
2023-05-15T08:22:18.384Z,5.50
2023-05-15T08:23:18.393Z,4.50
2023-05-15T08:24:18.353Z,3.90
2023-05-15T08:25:18.355Z,4.20
2023-05-15T08:26:18.330Z,3.90
2023-05-15T08:27:18.351Z,4.90
2023-05-15T08:28:18.337Z,4.40
2023-05-15T08:29:18.283Z,4.00
2023-05-15T08:30:18.299Z,4.20
2023-05-15T08:31:18.344Z,4.20
2023-05-15T08:32:18.262Z,4.00
2023-05-15T08:33:18.233Z,4.20
2023-05-15T08:34:18.240Z,4.10
2023-05-15T08:35:18.209Z,5.60
2023-05-15T08:36:18.302Z,4.10
2023-05-15T08:37:18.220Z,4.30
2023-05-15T08:38:18.181Z,4.10
2023-05-15T08:39:18.175Z,4.10
2023-05-15T08:40:21.314Z,4.20
2023-05-15T08:41:23.510Z,5.00
2023-05-15T08:42:18.152Z,4.00
2023-05-15T08:43:18.106Z,4.70
2023-05-15T08:44:18.123Z,3.90
2023-05-15T08:45:18.079Z,3.70
2023-05-15T08:46:18.106Z,4.10
2023-05-15T08:47:18.077Z,4.20
2023-05-15T08:48:18.130Z,4.70
2023-05-15T08:49:18.074Z,3.80
2023-05-15T08:50:18.033Z,3.70
2023-05-15T08:51:18.022Z,4.00
2023-05-15T08:52:17.989Z,3.70
2023-05-15T08:53:17.972Z,5.30
2023-05-15T08:54:17.959Z,4.50
2023-05-15T08:55:17.991Z,5.20
2023-05-15T08:56:17.934Z,4.20
2023-05-15T08:57:17.922Z,4.00
2023-05-15T08:58:17.913Z,4.10
2023-05-15T08:59:17.902Z,4.70
2023-05-15T09:00:17.902Z,4.40
2023-05-15T09:01:17.889Z,3.90
2023-05-15T09:02:17.861Z,4.20
2023-05-15T09:03:17.984Z,4.20
2023-05-15T09:04:17.849Z,4.20
2023-05-15T09:05:17.841Z,4.30
2023-05-15T09:06:17.808Z,4.30
2023-05-15T09:07:17.795Z,5.30
2023-05-15T09:08:17.805Z,4.60
2023-05-15T09:09:17.787Z,5.00
2023-05-15T09:10:17.767Z,4.60
2023-05-15T09:11:17.774Z,4.50
2023-05-15T09:12:17.728Z,5.70
2023-05-15T09:13:17.719Z,4.00
2023-05-15T09:14:18.089Z,4.80
2023-05-15T09:15:17.756Z,4.30
2023-05-15T09:16:17.756Z,5.60
2023-05-15T09:17:17.669Z,4.10
2023-05-15T09:18:17.717Z,6.60
2023-05-15T09:19:17.818Z,5.60
2023-05-15T09:20:17.633Z,5.50
2023-05-15T09:21:17.622Z,4.40
2023-05-15T09:22:17.667Z,5.10
2023-05-15T09:23:17.610Z,5.20
2023-05-15T09:24:17.584Z,4.60
2023-05-15T09:25:17.564Z,4.70
2023-05-15T09:26:17.558Z,4.90
2023-05-15T09:27:17.539Z,4.10
2023-05-15T09:28:17.598Z,5.50
2023-05-15T09:29:18.658Z,7.20
2023-05-15T09:30:17.664Z,4.40
2023-05-15T09:31:17.511Z,7.20
2023-05-15T09:32:17.598Z,4.80
2023-05-15T09:33:17.482Z,6.00
2023-05-15T09:34:17.455Z,7.20
2023-05-15T09:35:17.464Z,5.20
2023-05-15T09:36:17.430Z,5.50
2023-05-15T09:37:17.411Z,5.00
2023-05-15T09:38:17.414Z,5.30
2023-05-15T09:39:17.386Z,6.20
2023-05-15T09:40:17.375Z,5.60
2023-05-15T09:41:17.378Z,5.50
2023-05-15T09:42:17.378Z,4.50
2023-05-15T09:43:17.363Z,5.90
2023-05-15T09:44:18.696Z,5.90
2023-05-15T09:45:17.316Z,5.00
2023-05-15T09:46:17.391Z,5.10
2023-05-15T09:47:17.499Z,4.80
2023-05-15T09:48:17.460Z,6.90
2023-05-15T09:49:17.278Z,7.90
2023-05-15T09:50:17.268Z,5.30
2023-05-15T09:51:17.260Z,6.60
2023-05-15T09:52:17.281Z,6.20
2023-05-15T09:53:21.461Z,4.10
2023-05-15T09:54:17.223Z,5.10
2023-05-15T09:55:17.195Z,4.00
2023-05-15T09:56:17.200Z,4.80
2023-05-15T09:57:17.188Z,5.40
2023-05-15T09:58:17.158Z,3.80
2023-05-15T09:59:17.173Z,4.60
2023-05-15T10:00:17.198Z,4.30
2023-05-15T10:01:17.143Z,4.70
2023-05-15T10:02:17.112Z,4.40
2023-05-15T10:03:17.167Z,4.10
2023-05-15T10:04:17.083Z,4.70
2023-05-15T10:05:17.560Z,3.90
2023-05-15T10:06:17.145Z,4.20
2023-05-15T10:07:17.069Z,4.90
2023-05-15T10:08:17.062Z,4.50
2023-05-15T10:09:17.032Z,5.20
2023-05-15T10:10:17.010Z,3.80
2023-05-15T10:11:17.007Z,5.30
2023-05-15T10:12:16.988Z,4.40
2023-05-15T10:13:16.985Z,4.90
2023-05-15T10:14:16.968Z,4.50
2023-05-15T10:15:16.976Z,4.00
2023-05-15T10:16:17.002Z,3.90
2023-05-15T10:17:16.914Z,4.00
2023-05-15T10:18:16.907Z,6.60
2023-05-15T10:19:17.002Z,4.00
2023-05-15T10:20:16.927Z,3.50
2023-05-15T10:21:16.869Z,5.70
2023-05-15T10:22:16.856Z,3.90
2023-05-15T10:23:16.866Z,3.60
2023-05-15T10:24:16.836Z,3.70
2023-05-15T10:25:16.853Z,8.50
2023-05-15T10:26:16.809Z,6.40
2023-05-15T10:27:16.795Z,3.90
2023-05-15T10:28:16.794Z,5.30
2023-05-15T10:29:16.777Z,6.90
2023-05-15T10:30:16.820Z,6.70
2023-05-15T10:31:16.802Z,5.20
2023-05-15T10:32:16.745Z,4.10
2023-05-15T10:33:16.909Z,4.40
2023-05-15T10:34:16.733Z,5.20
2023-05-15T10:35:16.757Z,4.30
2023-05-15T10:36:17.046Z,7.50
2023-05-15T10:37:16.669Z,4.70
2023-05-15T10:38:16.689Z,5.50
2023-05-15T10:39:16.716Z,4.40
2023-05-15T10:40:16.696Z,3.30
2023-05-15T10:41:18.139Z,4.20
2023-05-15T10:42:16.622Z,5.60
2023-05-15T10:43:16.591Z,5.00
2023-05-15T10:44:16.596Z,4.50
2023-05-15T10:45:16.568Z,4.20
2023-05-15T10:46:16.563Z,3.90
2023-05-15T10:47:16.579Z,3.40
2023-05-15T10:48:16.548Z,5.70
2023-05-15T10:49:16.532Z,4.50
2023-05-15T10:50:16.520Z,3.30
2023-05-15T10:51:16.503Z,3.40
2023-05-15T10:52:16.493Z,3.50
2023-05-15T10:53:16.489Z,3.30
2023-05-15T10:54:16.451Z,3.40
2023-05-15T10:55:16.493Z,4.40
2023-05-15T10:56:16.521Z,3.40
2023-05-15T10:57:16.420Z,3.40
2023-05-15T10:58:16.425Z,3.20
2023-05-15T10:59:16.392Z,3.90
2023-05-15T11:00:16.444Z,2.80
2023-05-15T11:01:16.439Z,3.90
2023-05-15T11:02:16.494Z,3.10
2023-05-15T11:03:16.548Z,4.40
2023-05-15T11:04:16.384Z,3.50
2023-05-15T11:05:16.311Z,4.30
2023-05-15T11:06:16.300Z,4.60
2023-05-15T11:07:16.321Z,6.30
2023-05-15T11:08:16.283Z,3.00
2023-05-15T11:09:16.260Z,2.70
2023-05-15T11:10:16.248Z,4.70
2023-05-15T11:11:16.262Z,4.40
2023-05-15T11:12:16.257Z,4.10
2023-05-15T11:13:16.209Z,3.20
2023-05-15T11:14:16.199Z,3.00
2023-05-15T11:15:16.186Z,2.90
2023-05-15T11:16:16.197Z,2.10
2023-05-15T11:17:16.203Z,3.80
2023-05-15T11:18:16.188Z,2.40
2023-05-15T11:19:16.273Z,2.90
2023-05-15T11:20:16.122Z,3.10
2023-05-15T11:21:16.122Z,3.10
2023-05-15T11:22:16.119Z,3.30
2023-05-15T11:23:16.086Z,4.20
2023-05-15T11:24:16.083Z,3.30
2023-05-15T11:25:16.082Z,2.60
2023-05-15T11:26:16.075Z,3.30
2023-05-15T11:27:16.071Z,3.00
2023-05-15T11:28:16.043Z,2.60
2023-05-15T11:29:16.007Z,3.10
2023-05-15T11:30:16.000Z,3.50
2023-05-15T11:31:16.084Z,3.70
2023-05-15T11:32:15.967Z,2.80
2023-05-15T11:33:15.998Z,4.20
2023-05-15T11:34:15.938Z,3.20
2023-05-15T11:35:15.935Z,5.10
2023-05-15T11:36:15.981Z,3.90
2023-05-15T11:37:15.901Z,3.00
2023-05-15T11:38:15.885Z,3.90
2023-05-15T11:39:15.874Z,4.00
2023-05-15T11:40:15.887Z,3.60
2023-05-15T11:41:15.874Z,2.50
2023-05-15T11:42:15.852Z,3.60
2023-05-15T11:43:15.849Z,3.00
2023-05-15T11:44:15.817Z,3.10
2023-05-15T11:45:15.820Z,3.10
2023-05-15T11:46:15.826Z,3.40
2023-05-15T11:47:15.795Z,4.50
2023-05-15T11:48:15.795Z,3.10
2023-05-15T11:49:15.771Z,3.70
2023-05-15T11:50:15.792Z,3.10
2023-05-15T11:51:15.724Z,4.80
2023-05-15T11:52:15.715Z,5.40
2023-05-15T11:53:15.702Z,3.00
2023-05-15T11:54:15.734Z,3.20
2023-05-15T11:55:15.738Z,3.30
2023-05-15T11:56:15.670Z,5.60
2023-05-15T11:57:15.655Z,3.40
2023-05-15T11:58:15.637Z,3.70
2023-05-15T11:59:15.668Z,3.70
2023-05-15T12:00:15.613Z,4.00
2023-05-15T12:01:15.598Z,4.10
2023-05-15T12:02:15.602Z,3.90
2023-05-15T12:03:15.639Z,4.90
2023-05-15T12:04:15.712Z,4.20
2023-05-15T12:05:15.614Z,4.20
2023-05-15T12:06:15.552Z,4.80
2023-05-15T12:07:15.524Z,5.60
2023-05-15T12:08:15.508Z,4.20
2023-05-15T12:09:15.513Z,4.90
2023-05-15T12:10:15.503Z,4.70
2023-05-15T12:11:15.482Z,4.40
2023-05-15T12:12:15.463Z,6.20
2023-05-15T12:13:15.472Z,6.70
2023-05-15T12:14:15.455Z,6.80
2023-05-15T12:15:15.453Z,6.20
2023-05-15T12:16:15.477Z,6.70
2023-05-15T12:17:15.402Z,5.40
2023-05-15T12:18:15.403Z,4.80
2023-05-15T12:19:15.411Z,5.70
2023-05-15T12:20:15.365Z,5.10
2023-05-15T12:21:15.349Z,3.70
2023-05-15T12:22:15.329Z,5.10
2023-05-15T12:23:15.336Z,5.30
2023-05-15T12:24:15.302Z,4.90
2023-05-15T12:25:15.300Z,5.70
2023-05-15T12:26:15.272Z,6.40
2023-05-15T12:27:15.282Z,6.90
2023-05-15T12:28:15.261Z,8.70
2023-05-15T12:29:15.236Z,8.80
2023-05-15T12:30:15.247Z,7.10
2023-05-15T12:31:15.313Z,7.70
2023-05-15T12:32:15.285Z,7.90
2023-05-15T12:33:15.315Z,9.50
2023-05-15T12:34:15.187Z,8.50
2023-05-15T12:35:15.164Z,9.10
2023-05-15T12:36:15.142Z,8.10
2023-05-15T12:37:15.145Z,7.10
2023-05-15T12:38:15.118Z,9.00
2023-05-15T12:39:15.104Z,7.20
2023-05-15T12:40:15.109Z,6.60
2023-05-15T12:41:15.092Z,8.30
2023-05-15T12:42:15.082Z,8.70
2023-05-15T12:43:15.051Z,7.00
2023-05-15T12:44:15.039Z,7.60
2023-05-15T12:45:15.047Z,7.40
2023-05-15T12:46:15.070Z,9.20
2023-05-15T12:47:15.016Z,7.00
2023-05-15T12:48:15.073Z,8.30
2023-05-15T12:49:14.975Z,9.20
2023-05-15T12:50:14.957Z,8.10
2023-05-15T12:51:14.959Z,9.20
2023-05-15T12:52:14.928Z,7.60
2023-05-15T12:53:14.920Z,6.80
2023-05-15T12:54:14.919Z,7.40
2023-05-15T12:55:14.968Z,6.70
2023-05-15T12:56:14.891Z,6.30
2023-05-15T12:57:14.864Z,9.20
2023-05-15T12:58:14.848Z,6.60
2023-05-15T12:59:14.848Z,6.90
2023-05-15T13:00:14.865Z,6.00
2023-05-15T13:01:14.830Z,7.40
2023-05-15T13:02:14.861Z,5.60
2023-05-15T13:03:14.969Z,5.40
2023-05-15T13:04:14.767Z,6.50
2023-05-15T13:05:14.833Z,6.30
2023-05-15T13:06:14.816Z,6.60
2023-05-15T13:07:14.837Z,5.70
2023-05-15T13:08:14.736Z,5.70
2023-05-15T13:09:14.802Z,5.60